createdAt,value
2022-12-29T05:47:36.655Z,2.53
2022-12-29T05:50:05.091Z,2.53
2022-12-29T05:52:33.046Z,3.63
2022-12-29T05:55:01.443Z,3.47
2022-12-29T05:57:29.345Z,3.50
2022-12-29T05:59:57.261Z,2.85
2022-12-29T06:02:25.249Z,2.78
2022-12-29T06:04:54.633Z,2.65
2022-12-29T06:07:22.498Z,3.28
2022-12-29T06:09:50.419Z,5.05
2022-12-29T06:12:18.366Z,6.18
2022-12-29T06:14:46.242Z,2.63
2022-12-29T06:17:14.123Z,2.88
2022-12-29T06:19:42.009Z,2.08
2022-12-29T06:22:13.053Z,4.20
2022-12-29T06:24:41.429Z,5.00
2022-12-29T06:27:09.403Z,2.45
2022-12-29T06:29:38.100Z,3.60
2022-12-29T06:32:06.184Z,3.05
2022-12-29T06:34:34.120Z,2.05
2022-12-29T06:37:02.137Z,2.25
2022-12-29T06:39:31.386Z,3.38
2022-12-29T06:41:59.295Z,2.67
2022-12-29T06:44:27.207Z,3.53
2022-12-29T06:46:55.133Z,3.72
2022-12-29T06:49:23.293Z,4.82
2022-12-29T06:51:51.398Z,4.47
2022-12-29T06:54:19.264Z,3.35
2022-12-29T06:56:48.602Z,4.00
2022-12-29T06:59:16.507Z,4.07
2022-12-29T07:01:45.410Z,1.90
2022-12-29T07:04:13.458Z,3.72
2022-12-29T07:06:42.394Z,2.08
2022-12-29T07:09:10.789Z,2.80
2022-12-29T07:11:40.494Z,3.10
2022-12-29T07:14:09.830Z,2.35
2022-12-29T07:16:38.086Z,3.13
2022-12-29T07:19:06.054Z,2.15
2022-12-29T07:21:33.951Z,3.15
2022-12-29T07:24:01.851Z,3.08
2022-12-29T07:26:35.986Z,2.42
2022-12-29T07:29:04.438Z,4.07
2022-12-29T07:31:34.165Z,3.03
2022-12-29T07:34:06.542Z,3.30
2022-12-29T07:36:35.015Z,5.63
2022-12-29T07:39:03.131Z,3.72
2022-12-29T07:41:31.068Z,3.78
2022-12-29T07:43:59.481Z,5.00
2022-12-29T15:02:40.740Z,2.80
2022-12-29T15:05:26.673Z,2.33
2022-12-29T15:07:56.129Z,2.47
2022-12-29T15:10:26.590Z,3.40
2022-12-29T15:13:04.132Z,2.25
2022-12-29T15:15:39.049Z,2.50
2022-12-29T15:18:29.045Z,2.08
2022-12-29T15:20:59.582Z,4.07
2022-12-29T15:23:28.138Z,3.13
2022-12-29T15:26:03.036Z,2.35
2022-12-29T15:28:40.278Z,2.13
2022-12-29T15:31:14.528Z,3.30
2022-12-29T15:33:46.141Z,2.17
2022-12-29T15:36:16.014Z,4.32
2022-12-29T15:38:44.057Z,3.15
2022-12-29T15:41:31.763Z,2.20
2022-12-29T15:44:19.401Z,2.50
2022-12-29T15:46:47.394Z,2.17
2022-12-29T15:49:18.001Z,3.47
2022-12-29T15:51:46.526Z,2.50
2022-12-29T15:54:19.432Z,2.30
2022-12-29T15:56:47.910Z,3.03
2022-12-29T15:59:26.639Z,3.83
2022-12-29T16:01:56.478Z,3.42
2022-12-29T16:04:36.104Z,5.13
2022-12-29T16:07:28.514Z,4.38
2022-12-29T16:09:57.713Z,3.47
2022-12-29T16:12:29.804Z,2.15
2022-12-29T16:14:59.798Z,4.53
2022-12-29T16:17:33.443Z,2.55
2022-12-29T16:20:06.908Z,1.70
2022-12-29T16:22:38.378Z,2.10
2022-12-29T16:25:23.927Z,4.55
2022-12-29T16:27:53.059Z,3.67
2022-12-29T16:30:27.967Z,2.80
2022-12-29T16:33:02.698Z,3.63
2022-12-29T16:35:41.597Z,3.72
2022-12-29T16:38:15.796Z,1.63
2022-12-29T16:40:53.107Z,3.10
2022-12-29T16:43:26.241Z,4.72
2022-12-29T16:46:20.662Z,4.72
2022-12-29T16:48:51.973Z,5.95
2022-12-29T16:51:31.009Z,4.43
2022-12-29T16:53:59.994Z,2.45
2022-12-29T16:56:30.225Z,2.03
2022-12-29T16:59:06.643Z,2.45
2022-12-29T17:01:38.665Z,4.70
2022-12-29T17:04:10.024Z,2.28
2022-12-29T17:06:39.553Z,2.72
2022-12-29T17:09:18.944Z,2.38
2022-12-29T17:12:05.266Z,3.08
2022-12-29T17:14:42.999Z,3.70
2022-12-29T17:17:19.597Z,3.03
2022-12-29T17:19:53.592Z,5.45
2022-12-29T17:22:26.210Z,2.88
2022-12-29T17:24:54.980Z,2.20
2022-12-29T17:27:27.124Z,2.95
2022-12-29T17:29:59.547Z,3.83
2022-12-29T17:32:27.740Z,1.77
2022-12-29T17:34:55.938Z,2.58
2022-12-29T17:37:43.179Z,2.13
2022-12-29T17:40:15.954Z,2.45
2022-12-29T17:42:46.219Z,3.00
2022-12-29T17:45:21.383Z,2.00
2022-12-29T17:47:52.050Z,2.90
2022-12-29T17:50:21.966Z,6.82
2022-12-29T17:53:00.159Z,5.72
2022-12-29T17:55:36.789Z,5.20
2022-12-29T17:58:17.672Z,3.47
2022-12-29T18:00:46.227Z,6.30
2022-12-29T18:03:17.927Z,7.45
2022-12-29T18:05:46.202Z,3.95
2022-12-29T18:08:15.495Z,8.77
2022-12-29T18:10:44.059Z,4.97
2022-12-29T18:13:22.295Z,5.15
2022-12-29T18:15:50.327Z,2.50
2022-12-29T18:18:19.972Z,3.05
2022-12-29T18:20:49.315Z,2.00
2022-12-29T18:23:27.662Z,2.65
2022-12-29T18:26:04.724Z,3.63
2022-12-29T18:28:44.284Z,3.85
2022-12-29T18:31:32.393Z,2.28
2022-12-29T18:34:29.468Z,4.85
2022-12-29T18:37:03.395Z,5.25
2022-12-29T18:39:40.876Z,3.80
2022-12-29T18:42:23.474Z,4.47
2022-12-29T18:45:18.476Z,3.42
2022-12-29T18:47:58.085Z,2.28
2022-12-29T18:50:29.033Z,3.70
2022-12-29T18:53:04.413Z,1.83
2022-12-29T18:55:34.070Z,2.95
2022-12-29T18:58:02.024Z,2.47
2022-12-29T19:00:30.228Z,2.33
2022-12-29T19:02:58.598Z,3.03
2022-12-29T19:05:28.418Z,2.63
2022-12-29T19:07:56.567Z,3.20
2022-12-29T19:10:26.007Z,1.88
2022-12-29T19:12:57.886Z,2.60
2022-12-29T19:15:32.283Z,2.75
2022-12-29T19:18:41.648Z,2.97
2022-12-29T19:20:51.904Z,2.80
2022-12-29T19:23:21.183Z,4.20
2022-12-29T19:25:50.207Z,4.75
2022-12-29T19:28:21.992Z,6.93
2022-12-29T19:30:52.600Z,8.00
2022-12-29T19:33:22.107Z,9.80
2022-12-29T19:35:50.234Z,19.50
2022-12-29T19:38:18.311Z,18.38
2022-12-29T19:40:50.241Z,19.67
2022-12-29T19:43:19.891Z,22.58
2022-12-29T19:45:47.935Z,10.75
2022-12-29T19:48:20.353Z,8.65
2022-12-29T19:50:48.813Z,12.90
2022-12-29T19:53:17.497Z,11.95
2022-12-29T19:55:46.042Z,11.48
2022-12-29T19:58:14.676Z,21.42
2022-12-29T20:00:44.970Z,9.48
2022-12-29T20:03:13.256Z,7.00
2022-12-29T20:05:41.812Z,10.88
2022-12-29T20:08:10.520Z,6.07
2022-12-29T20:10:38.444Z,8.52
2022-12-29T20:13:06.526Z,14.38
2022-12-29T20:15:34.620Z,7.00
2022-12-29T20:18:13.565Z,5.45
2022-12-29T20:20:42.586Z,4.90
2022-12-29T20:23:10.593Z,6.07
2022-12-29T20:25:47.041Z,11.15
2022-12-29T20:28:17.047Z,10.55
2022-12-29T20:30:45.325Z,6.20
2022-12-29T20:33:14.631Z,7.45
2022-12-29T20:35:42.566Z,6.60
2022-12-29T20:38:10.500Z,6.57
2022-12-29T20:40:46.162Z,5.03
2022-12-29T20:43:16.038Z,5.60
2022-12-29T20:45:44.251Z,2.63
2022-12-29T20:48:12.380Z,5.53
2022-12-29T20:50:41.868Z,5.60
2022-12-29T20:53:09.889Z,2.20
2022-12-29T20:55:40.818Z,2.95
2022-12-29T20:58:25.291Z,3.45
